Time;durP1;ratioP1;P1;durP2;ratioP2;P2;SDS_P1;SDS_P2;PMS_P1;PMS_P2;Temp;Humidity;BMP_temperature;BMP_pressure;BME280_temperature;BME280_humidity;BME280_pressure;Samples;Min_cycle;Max_cycle;Signal;HPM_P1;HPM_P2
2022/09/08 00:00:32;;;;;;;8.60;7.70;;;;;;;16.12;80.35;96594.92;107912;1270;23996;-78
2022/09/08 00:03:10;;;;;;;9.30;7.10;;;;;;;16.15;80.23;96594.35;107950;1270;25259;-77
2022/09/08 00:05:45;;;;;;;8.00;7.20;;;;;;;16.16;80.13;96593.87;107957;1270;24368;-78
2022/09/08 00:08:20;;;;;;;10.00;7.20;;;;;;;16.16;80.05;96592.02;107936;1270;22837;-77
2022/09/08 00:10:54;;;;;;;10.70;7.70;;;;;;;16.16;80.09;96589.82;107990;1270;22985;-77
2022/09/08 00:13:28;;;;;;;8.00;7.10;;;;;;;16.16;80.10;96586.92;107952;1270;25352;-77
2022/09/08 00:16:02;;;;;;;9.00;6.90;;;;;;;16.20;80.01;96585.50;107945;1270;25276;-77
2022/09/08 00:18:34;;;;;;;9.50;7.20;;;;;;;16.18;79.77;96588.25;107930;1270;22996;-77
2022/09/08 00:21:05;;;;;;;8.50;6.90;;;;;;;16.15;79.72;96585.10;107946;1270;22632;-78
2022/09/08 00:23:37;;;;;;;7.70;6.90;;;;;;;16.16;79.83;96588.56;107941;1270;22678;-78
2022/09/08 00:26:08;;;;;;;8.10;6.50;;;;;;;16.15;79.80;96590.98;107878;1270;22533;-77
2022/09/08 00:28:40;;;;;;;9.40;7.40;;;;;;;16.18;80.01;96591.73;107836;1270;25971;-77
2022/09/08 00:31:12;;;;;;;8.90;7.80;;;;;;;16.23;79.85;96594.02;107920;1270;22522;-77
2022/09/08 00:33:44;;;;;;;8.40;7.20;;;;;;;16.24;79.91;96596.38;107942;1270;22519;-77
2022/09/08 00:36:17;;;;;;;8.40;7.00;;;;;;;16.25;79.86;96595.27;107934;1270;25500;-77
2022/09/08 00:38:52;;;;;;;8.50;7.00;;;;;;;16.26;79.95;96591.80;107881;1270;25141;-77
2022/09/08 00:41:25;;;;;;;8.80;6.30;;;;;;;16.31;79.98;96593.75;107940;1270;25257;-78
2022/09/08 00:44:00;;;;;;;7.40;6.50;;;;;;;16.32;79.82;96590.66;107948;1270;22517;-77
2022/09/08 00:46:37;;;;;;;7.40;6.60;;;;;;;16.30;79.81;96586.39;107971;1270;25471;-77
2022/09/08 00:49:13;;;;;;;8.10;6.70;;;;;;;16.31;79.69;96584.98;107772;1270;31964;-77
2022/09/08 00:51:48;;;;;;;7.50;6.60;;;;;;;16.29;79.58;96583.97;107954;1270;23676;-78
2022/09/08 00:54:20;;;;;;;7.00;6.10;;;;;;;16.28;79.51;96586.08;107921;1270;22533;-77
2022/09/08 00:56:52;;;;;;;7.80;6.30;;;;;;;16.25;79.44;96584.73;107942;1270;23104;-78
2022/09/08 00:59:24;;;;;;;9.20;7.60;;;;;;;16.22;79.35;96579.61;107880;1270;26044;-77
2022/09/08 01:01:56;;;;;;;8.10;7.30;;;;;;;16.17;79.43;96579.69;106691;1270;1555725;-77
2022/09/08 01:04:27;;;;;;;9.60;7.10;;;;;;;16.12;79.42;96575.79;107950;1270;22624;-77
2022/09/08 01:12:59;;;;;;;6.80;6.10;;;;;;;16.02;79.54;96583.07;107973;1270;22533;-78
2022/09/08 01:15:30;;;;;;;7.40;6.70;;;;;;;15.99;79.66;96579.84;107846;1270;22526;-77
2022/09/08 01:18:02;;;;;;;7.70;6.90;;;;;;;15.99;79.71;96577.13;107944;1270;22666;-77
2022/09/08 01:20:42;;;;;;;8.00;6.70;;;;;;;15.98;79.94;96578.27;107869;1270;23753;-78
2022/09/08 01:23:25;;;;;;;;;;;;;;;15.99;79.87;96576.44;107956;1270;22515;-77
2022/09/08 01:26:16;;;;;;;7.10;6.10;;;;;;;15.98;80.04;96572.70;107942;1270;22538;-77
2022/09/08 01:28:53;;;;;;;6.70;6.00;;;;;;;16.03;80.21;96575.23;107848;1270;29181;-78
2022/09/08 01:31:26;;;;;;;6.90;6.20;;;;;;;16.06;80.31;96575.23;107937;1270;22560;-77
2022/09/08 01:33:59;;;;;;;7.90;5.80;;;;;;;16.07;80.24;96576.05;107948;1270;22505;-77
2022/09/08 01:36:33;;;;;;;7.90;6.60;;;;;;;16.07;80.28;96570.32;107956;1270;22538;-77
2022/09/08 01:39:04;;;;;;;6.60;5.80;;;;;;;16.12;80.38;96568.23;107915;1270;24032;-77
2022/09/08 01:41:35;;;;;;;7.10;6.40;;;;;;;16.19;80.53;96568.86;107970;1270;22604;-78
2022/09/08 01:44:07;;;;;;;9.50;6.50;;;;;;;16.24;80.50;96570.26;107955;1270;22535;-77
2022/09/08 01:46:38;;;;;;;8.10;6.10;;;;;;;16.30;80.35;96567.03;107971;1269;22538;-78
2022/09/08 01:49:09;;;;;;;7.60;6.00;;;;;;;16.34;80.51;96567.16;107879;1270;31522;-78
2022/09/08 01:51:40;;;;;;;7.30;6.60;;;;;;;16.38;80.30;96567.80;107909;1269;22524;-78
2022/09/08 01:54:11;;;;;;;6.80;6.00;;;;;;;16.35;80.27;96566.60;107878;1270;22475;-78
2022/09/08 01:56:43;;;;;;;7.60;5.70;;;;;;;16.36;80.26;96559.74;107932;1270;24454;-78
2022/09/08 01:59:14;;;;;;;7.00;6.30;;;;;;;16.40;80.30;96562.28;107883;1270;26781;-78
2022/09/08 02:01:45;;;;;;;6.30;5.70;;;;;;;16.40;80.04;96557.53;107964;1270;25335;-78
2022/09/08 02:04:16;;;;;;;6.80;6.00;;;;;;;16.36;79.99;96557.92;107953;1270;22532;-78
2022/09/08 02:06:48;;;;;;;6.90;6.20;;;;;;;16.34;80.13;96558.46;107929;1270;25509;-78
2022/09/08 02:09:20;;;;;;;6.70;6.00;;;;;;;16.34;80.05;96556.05;107966;1270;30233;-77
2022/09/08 02:11:51;;;;;;;7.40;6.00;;;;;;;16.30;79.99;96560.93;107937;1270;22519;-78
2022/09/08 02:14:23;;;;;;;7.60;6.00;;;;;;;16.26;80.17;96550.77;107923;1270;25869;-78
2022/09/08 02:16:54;;;;;;;7.00;6.30;;;;;;;16.24;80.14;96554.02;107933;1270;22531;-78
2022/09/08 02:19:25;;;;;;;7.30;6.10;;;;;;;16.21;80.26;96552.83;107867;1270;28171;-77
2022/09/08 02:22:00;;;;;;;6.90;6.10;;;;;;;16.21;80.37;96555.04;107948;1270;22539;-78
2022/09/08 02:24:32;;;;;;;7.40;6.50;;;;;;;16.19;80.39;96554.13;107919;1270;24240;-77
2022/09/08 02:27:04;;;;;;;6.90;6.20;;;;;;;16.18;80.71;96552.14;107936;1270;22531;-77
2022/09/08 02:29:35;;;;;;;7.20;6.30;;;;;;;16.18;80.68;96546.55;107908;1270;25466;-78
2022/09/08 02:32:10;;;;;;;7.40;6.70;;;;;;;16.18;80.70;96541.46;107956;1270;24436;-78
2022/09/08 02:34:41;;;;;;;7.90;6.00;;;;;;;16.18;80.96;96538.15;107922;1270;22529;-77
2022/09/08 02:37:12;;;;;;;6.20;5.60;;;;;;;16.20;81.18;96536.80;107950;1270;24141;-78
2022/09/08 02:39:44;;;;;;;6.90;6.20;;;;;;;16.24;80.97;96539.61;107829;1270;27304;-78
2022/09/08 02:42:17;;;;;;;7.40;5.80;;;;;;;16.23;80.95;96538.80;107958;1270;22606;-78
2022/09/08 02:44:49;;;;;;;7.20;5.60;;;;;;;16.23;80.86;96539.08;107969;1270;25477;-78
2022/09/08 02:47:20;;;;;;;6.50;5.90;;;;;;;16.23;80.92;96534.29;107960;1270;22543;-78
2022/09/08 02:49:51;;;;;;;6.60;5.90;;;;;;;16.25;80.85;96532.45;107837;1270;31559;-78
2022/09/08 02:52:23;;;;;;;6.80;6.10;;;;;;;16.27;80.89;96534.15;107935;1270;25508;-78
2022/09/08 02:54:54;;;;;;;7.20;5.70;;;;;;;16.31;80.79;96530.87;107933;1270;22548;-78
2022/09/08 02:57:27;;;;;;;6.90;6.10;;;;;;;16.28;80.40;96533.11;107961;1269;24551;-78
2022/09/08 02:59:58;;;;;;;6.70;5.80;;;;;;;16.21;80.29;96534.58;107864;1270;31709;-78
2022/09/08 03:02:30;;;;;;;6.60;6.00;;;;;;;16.16;80.42;96531.29;107948;1270;22531;-78
2022/09/08 03:05:01;;;;;;;6.60;6.00;;;;;;;16.13;80.37;96525.63;107924;1270;22556;-78
2022/09/08 03:07:32;;;;;;;6.10;5.40;;;;;;;16.11;80.52;96520.82;107951;1270;22555;-78
2022/09/08 03:10:04;;;;;;;6.80;5.90;;;;;;;16.06;80.48;96515.27;107842;1270;27847;-78
2022/09/08 03:12:38;;;;;;;8.00;6.10;;;;;;;16.05;80.67;96511.06;107813;1272;22573;-78
2022/09/08 03:15:10;;;;;;;6.90;6.20;;;;;;;16.06;80.64;96512.52;107889;1270;22541;-78
2022/09/08 03:17:41;;;;;;;7.00;5.80;;;;;;;16.05;80.54;96512.55;107912;1270;22524;-78
2022/09/08 03:20:14;;;;;;;6.80;5.60;;;;;;;16.02;80.70;96507.06;107839;1270;25900;-78
2022/09/08 03:22:45;;;;;;;6.90;6.20;;;;;;;16.00;80.61;96507.23;107944;1270;22575;-78
2022/09/08 03:25:17;;;;;;;6.60;5.80;;;;;;;15.97;80.78;96510.06;107930;1270;25520;-78
2022/09/08 03:27:49;;;;;;;6.70;5.70;;;;;;;15.97;80.88;96512.42;107969;1270;22537;-78
2022/09/08 03:30:21;;;;;;;6.80;6.10;;;;;;;15.91;80.78;96517.05;107890;1270;26584;-78
2022/09/08 03:32:52;;;;;;;6.30;5.60;;;;;;;15.88;80.97;96514.30;107904;1270;22538;-78
2022/09/08 03:35:24;;;;;;;6.90;6.20;;;;;;;15.88;81.16;96508.42;107922;1270;22537;-78
2022/09/08 03:37:57;;;;;;;6.40;5.80;;;;;;;15.88;81.03;96508.48;107895;1270;25411;-79
2022/09/08 03:40:29;;;;;;;6.70;6.00;;;;;;;15.84;80.99;96500.91;107903;1270;29079;-78
2022/09/08 03:43:01;;;;;;;6.30;5.70;;;;;;;15.81;81.00;96497.80;107953;1270;22563;-78
2022/09/08 03:45:33;;;;;;;6.80;6.20;;;;;;;15.77;81.23;96496.38;107971;1270;25249;-78
2022/09/08 03:48:04;;;;;;;6.80;6.10;;;;;;;15.70;81.14;96499.92;107933;1270;22563;-78
2022/09/08 03:50:36;;;;;;;7.20;6.10;;;;;;;15.67;81.34;96500.90;107837;1270;26882;-78
2022/09/08 03:53:07;;;;;;;7.30;6.60;;;;;;;15.61;81.38;96504.98;107798;1271;23148;-78
2022/09/08 03:55:42;;;;;;;7.50;6.20;;;;;;;15.60;81.53;96509.59;107810;1271;22525;-78
2022/09/08 03:58:13;;;;;;;6.90;6.30;;;;;;;15.60;81.75;96508.36;107807;1271;24182;-79
2022/09/08 04:00:45;;;;;;;6.80;6.10;;;;;;;15.62;81.80;96508.47;107813;1271;22561;-78
2022/09/08 04:03:17;;;;;;;7.30;6.40;;;;;;;15.62;81.92;96501.84;107817;1271;22529;-78
2022/09/08 04:05:48;;;;;;;7.30;6.30;;;;;;;15.57;81.72;96503.12;107905;1270;22547;-78
2022/09/08 04:08:20;;;;;;;7.20;6.50;;;;;;;15.52;81.82;96503.02;107746;1271;25051;-77
2022/09/08 04:10:51;;;;;;;8.30;6.80;;;;;;;15.50;82.01;96507.23;107949;1270;22524;-78
2022/09/08 04:13:22;;;;;;;6.70;6.00;;;;;;;15.47;81.75;96505.94;107966;1270;25205;-78
2022/09/08 04:15:54;;;;;;;7.20;6.40;;;;;;;15.45;81.83;96501.11;107877;1270;22859;-78
2022/09/08 04:18:25;;;;;;;7.50;6.10;;;;;;;15.42;82.12;96505.77;107889;1270;29294;-77
2022/09/08 04:21:01;;;;;;;7.30;6.60;;;;;;;15.39;82.40;96509.06;107954;1270;22521;-78
2022/09/08 04:23:34;;;;;;;7.40;6.70;;;;;;;15.40;82.49;96514.94;107885;1270;22570;-78
2022/09/08 04:26:11;;;;;;;7.40;6.60;;;;;;;15.48;82.43;96509.61;107953;1270;25255;-78
2022/09/08 04:28:43;;;;;;;7.30;6.60;;;;;;;15.63;82.60;96509.18;107866;1270;29464;-78
2022/09/08 04:31:20;;;;;;;7.50;6.80;;;;;;;15.81;82.51;96503.36;107962;1270;22551;-78
2022/09/08 04:33:52;;;;;;;7.40;6.60;;;;;;;16.09;82.43;96502.02;107869;1270;22512;-78
2022/09/08 04:36:24;;;;;;;6.70;6.10;;;;;;;16.39;81.95;96501.41;107922;1270;23357;-78
2022/09/08 04:38:56;;;;;;;8.30;6.50;;;;;;;16.66;81.32;96500.54;107830;1270;23737;-78
2022/09/08 04:41:33;;;;;;;7.10;6.20;;;;;;;16.95;80.92;96501.15;107938;1271;23260;-78
2022/09/08 04:44:05;;;;;;;6.60;5.70;;;;;;;17.27;80.30;96506.30;107958;1270;25336;-78
2022/09/08 04:46:36;;;;;;;7.10;5.80;;;;;;;17.57;79.48;96505.77;107872;1270;22573;-78
2022/09/08 04:49:08;;;;;;;7.60;5.70;;;;;;;17.88;78.63;96505.49;107909;1270;26235;-78
2022/09/08 04:51:39;;;;;;;6.40;5.70;;;;;;;17.97;77.27;96502.17;107911;1270;24270;-79
2022/09/08 04:54:11;;;;;;;6.50;5.40;;;;;;;18.05;77.01;96491.81;107953;1269;22545;-79
2022/09/08 04:56:42;;;;;;;8.00;6.20;;;;;;;18.20;76.35;96493.80;107906;1271;22640;-79
2022/09/08 04:59:14;;;;;;;6.60;5.90;;;;;;;18.56;76.59;96494.89;107815;1270;43756;-78
2022/09/08 05:01:45;;;;;;;5.90;5.30;;;;;;;19.14;76.26;96494.29;107882;1270;22516;-79
2022/09/08 05:04:17;;;;;;;5.80;5.00;;;;;;;19.71;74.73;96499.50;107968;1270;25352;-79
2022/09/08 05:06:49;;;;;;;5.90;5.30;;;;;;;20.03;73.02;96501.34;107865;1270;25279;-79
2022/09/08 05:09:20;;;;;;;6.70;5.60;;;;;;;20.26;71.19;96498.12;107814;1270;26546;-78
2022/09/08 05:11:52;;;;;;;6.60;5.30;;;;;;;20.10;69.25;96495.25;107943;1270;22564;-79
2022/09/08 05:14:23;;;;;;;5.90;5.30;;;;;;;20.02;69.45;96496.11;107901;1270;22554;-79
2022/09/08 05:16:54;;;;;;;5.90;5.20;;;;;;;20.30;69.06;96492.48;107921;1270;22512;-79
2022/09/08 05:19:26;;;;;;;5.50;5.00;;;;;;;20.57;68.11;96496.67;107901;1271;30698;-79
2022/09/08 05:22:00;;;;;;;5.60;4.90;;;;;;;20.83;66.93;96493.67;107920;1270;22572;-79
2022/09/08 05:24:32;;;;;;;6.00;4.60;;;;;;;21.22;67.36;96489.97;107890;1271;22549;-79
2022/09/08 05:27:03;;;;;;;6.00;5.10;;;;;;;21.63;65.30;96489.02;107990;1271;24336;-79
2022/09/08 05:29:35;;;;;;;5.60;5.10;;;;;;;21.55;63.69;96489.69;107902;1270;32671;-79
2022/09/08 05:32:07;;;;;;;6.90;5.20;;;;;;;21.45;64.50;96487.15;107859;1271;22538;-79
2022/09/08 05:34:41;;;;;;;5.40;4.90;;;;;;;22.20;64.71;96486.21;107908;1271;25479;-79
2022/09/08 05:37:12;;;;;;;5.50;5.00;;;;;;;21.97;62.61;96488.13;107896;1270;23351;-79
2022/09/08 05:39:46;;;;;;;5.60;5.10;;;;;;;21.21;62.57;96488.73;107885;1271;27017;-79
2022/09/08 05:42:18;;;;;;;5.60;4.70;;;;;;;20.40;63.33;96492.52;107895;1271;22528;-79
2022/09/08 05:44:50;;;;;;;6.10;5.40;;;;;;;19.71;64.64;96492.20;107946;1271;22550;-79
2022/09/08 05:47:21;;;;;;;6.60;5.30;;;;;;;19.16;65.80;96496.31;107937;1271;22540;-79
2022/09/08 05:49:53;;;;;;;6.20;5.60;;;;;;;18.74;67.02;96499.73;107863;1271;27552;-79
2022/09/08 05:52:24;;;;;;;6.30;5.60;;;;;;;18.50;67.85;96504.48;107951;1271;23641;-79
2022/09/08 05:54:57;;;;;;;5.90;5.30;;;;;;;18.78;69.46;96507.14;107964;1270;25294;-79
2022/09/08 05:57:31;;;;;;;5.70;5.20;;;;;;;19.94;69.37;96511.61;107905;1270;22554;-79
2022/09/08 06:00:03;;;;;;;6.10;4.90;;;;;;;20.66;67.88;96504.62;107904;1271;34186;-80
2022/09/08 06:02:35;;;;;;;5.70;5.00;;;;;;;21.48;66.89;96497.61;107999;1271;25436;-79
2022/09/08 06:05:07;;;;;;;5.70;4.90;;;;;;;22.50;66.03;96492.71;107949;1270;22520;-79
2022/09/08 06:07:38;;;;;;;5.00;4.50;;;;;;;23.78;64.65;96487.84;107972;1269;23210;-80
2022/09/08 06:10:12;;;;;;;5.10;4.60;;;;;;;24.93;61.65;96485.92;107836;1270;27863;-80
2022/09/08 06:12:46;;;;;;;4.70;4.30;;;;;;;25.75;59.93;96477.92;108001;1271;25352;-80
2022/09/08 06:15:18;;;;;;;5.40;4.90;;;;;;;26.35;56.92;96480.39;107941;1271;24376;-80
2022/09/08 06:17:49;;;;;;;4.40;4.00;;;;;;;27.08;56.55;96481.06;107970;1270;25336;-80
2022/09/08 06:20:23;;;;;;;4.80;4.10;;;;;;;27.69;53.82;96477.46;107883;1271;25789;-80
2022/09/08 06:22:55;;;;;;;6.20;4.30;;;;;;;28.03;52.01;96477.21;107952;1270;25336;-80
2022/09/08 06:25:26;;;;;;;4.80;4.40;;;;;;;28.10;49.95;96481.85;107948;1271;22528;-80
2022/09/08 06:28:02;;;;;;;4.20;3.90;;;;;;;28.13;49.74;96479.66;107941;1271;24302;-80
2022/09/08 06:30:34;;;;;;;4.50;4.10;;;;;;;28.42;49.07;96479.56;107846;1271;30670;-80
2022/09/08 06:33:14;;;;;;;5.00;3.80;;;;;;;28.67;48.31;96474.89;107938;1271;25614;-80
2022/09/08 06:35:54;;;;;;;4.30;3.80;;;;;;;28.99;47.04;96475.56;107894;1271;24241;-80
2022/09/08 06:38:32;;;;;;;4.50;4.10;;;;;;;29.04;46.60;96475.05;107871;1271;32511;-79
2022/09/08 06:41:11;;;;;;;4.70;4.00;;;;;;;29.17;45.56;96471.60;107902;1271;22522;-80
2022/09/08 06:43:46;;;;;;;4.10;3.80;;;;;;;29.42;45.77;96468.80;107926;1270;22676;-80
2022/09/08 06:46:21;;;;;;;6.50;4.10;;;;;;;30.11;45.09;96469.50;107932;1271;22553;-81
2022/09/08 06:48:54;;;;;;;5.80;4.00;;;;;;;30.61;43.94;96465.59;107808;1271;30976;-81
2022/09/08 06:51:37;;;;;;;6.50;3.80;;;;;;;30.74;42.31;96457.52;108035;1271;22542;-81
2022/09/08 06:54:20;;;;;;;8.10;4.00;;;;;;;30.58;42.16;96454.99;108000;1271;27688;-81
2022/09/08 06:57:01;;;;;;;7.10;3.70;;;;;;;30.81;41.74;96454.43;108066;1271;26020;-80
2022/09/08 06:59:47;;;;;;;6.00;3.90;;;;;;;31.31;42.50;96450.73;107951;1271;29679;-79
2022/09/08 07:02:40;;;;;;;4.80;3.50;;;;;;;32.38;42.28;96452.14;108031;1271;24235;-79
2022/09/08 07:05:32;;;;;;;4.50;3.80;;;;;;;33.74;41.47;96453.47;107953;1271;22530;-79
2022/09/08 07:08:11;;;;;;;5.20;3.80;;;;;;;34.53;39.90;96445.42;108043;1271;22541;-80
2022/09/08 07:10:48;;;;;;;4.10;3.60;;;;;;;35.10;39.55;96446.30;107794;1271;27479;-80
2022/09/08 07:13:28;;;;;;;3.80;3.20;;;;;;;36.17;39.03;96446.71;107910;1271;24235;-80
2022/09/08 07:16:08;;;;;;;3.90;3.50;;;;;;;37.31;37.63;96447.56;107870;1271;22581;-80
2022/09/08 07:18:45;;;;;;;3.80;3.40;;;;;;;37.61;34.73;96444.85;107875;1271;26574;-79
2022/09/08 07:21:27;;;;;;;3.90;3.40;;;;;;;37.52;34.84;96444.34;107842;1271;22528;-79
2022/09/08 07:24:02;;;;;;;4.00;3.60;;;;;;;37.56;33.69;96444.40;107876;1271;25502;-80
2022/09/08 07:26:39;;;;;;;3.90;3.60;;;;;;;37.65;33.99;96437.41;107865;1271;22668;-79
2022/09/08 07:29:19;;;;;;;3.50;3.20;;;;;;;38.12;33.50;96442.13;107794;1271;28222;-79
2022/09/08 07:31:53;;;;;;;3.90;3.50;;;;;;;37.87;32.99;96442.30;107864;1271;22691;-79
2022/09/08 07:34:27;;;;;;;3.20;3.00;;;;;;;38.42;33.33;96441.30;107849;1271;25255;-80
2022/09/08 07:37:07;;;;;;;3.50;3.20;;;;;;;38.81;31.95;96436.80;107835;1270;25353;-80
2022/09/08 07:39:49;;;;;;;4.30;3.10;;;;;;;39.06;32.17;96433.63;107780;1271;33006;-80
2022/09/08 07:42:20;;;;;;;4.60;3.30;;;;;;;39.49;30.69;96433.15;107868;1271;25506;-80
2022/09/08 07:44:58;;;;;;;3.80;3.40;;;;;;;39.51;30.88;96432.27;107836;1270;25334;-79
2022/09/08 07:47:42;;;;;;;3.90;3.50;;;;;;;39.29;30.78;96429.79;107922;1271;22529;-79
2022/09/08 07:50:23;;;;;;;3.70;3.40;;;;;;;38.72;29.75;96435.97;107827;1271;33585;-79
2022/09/08 07:53:04;;;;;;;3.50;3.20;;;;;;;38.89;31.51;96432.48;107879;1271;22539;-79
2022/09/08 07:55:41;;;;;;;3.40;3.10;;;;;;;39.72;30.85;96431.52;107901;1271;22542;-80
2022/09/08 07:58:24;;;;;;;5.90;3.20;;;;;;;40.21;30.42;96430.92;107880;1271;22537;-79
2022/09/08 08:01:00;;;;;;;3.40;3.10;;;;;;;40.59;30.36;96433.55;107889;1271;25527;-79
2022/09/08 08:03:46;;;;;;;3.30;3.00;;;;;;;41.06;29.63;96429.73;107830;1271;22555;-80
2022/09/08 08:06:24;;;;;;;5.10;2.80;;;;;;;41.48;29.27;96424.91;107907;1271;22607;-79
2022/09/08 08:09:03;;;;;;;8.60;3.90;;;;;;;41.98;28.75;96428.45;107849;1271;30033;-79
2022/09/08 08:11:43;;;;;;;3.60;3.30;;;;;;;41.20;28.11;96419.05;107914;1271;22545;-79
2022/09/08 08:14:25;;;;;;;4.10;3.70;;;;;;;41.72;28.68;96421.09;107936;1271;22553;-79
2022/09/08 08:17:06;;;;;;;6.10;3.70;;;;;;;42.20;28.40;96423.05;107837;1271;24316;-80
2022/09/08 08:20:04;;;;;;;3.60;3.30;;;;;;;42.52;27.82;96426.42;107945;1271;29432;-80
2022/09/08 08:22:56;;;;;;;4.00;3.40;;;;;;;42.68;27.30;96423.97;108051;1271;22549;-79
2022/09/08 08:25:32;;;;;;;3.90;3.50;;;;;;;42.80;26.71;96418.98;107912;1270;22678;-80
2022/09/08 08:28:13;;;;;;;4.00;3.70;;;;;;;42.25;26.89;96416.72;107930;1271;25312;-80
2022/09/08 08:30:58;;;;;;;4.70;3.60;;;;;;;42.42;26.92;96417.71;107840;1271;22592;-80
2022/09/08 08:33:33;;;;;;;4.20;3.50;;;;;;;42.42;26.50;96415.68;107898;1271;22532;-80
2022/09/08 08:36:08;;;;;;;4.10;3.70;;;;;;;42.34;26.54;96412.23;107895;1269;22537;-80
2022/09/08 08:38:45;;;;;;;4.40;4.00;;;;;;;41.96;26.33;96403.56;107823;1271;28419;-80
2022/09/08 08:41:27;;;;;;;5.00;4.50;;;;;;;41.42;26.88;96395.66;107911;1271;24322;-80
2022/09/08 08:44:14;;;;;;;5.30;4.90;;;;;;;41.27;26.98;96392.42;107748;1271;23484;-80
2022/09/08 08:47:19;;;;;;;5.70;5.10;;;;;;;41.02;27.18;96389.11;107996;1271;25507;-80
2022/09/08 08:50:29;;;;;;;6.00;5.00;;;;;;;40.72;27.65;96375.55;107907;1271;22822;-80
2022/09/08 08:53:24;;;;;;;8.40;5.60;;;;;;;40.33;28.00;96370.98;108042;1270;24228;-80
2022/09/08 08:56:05;;;;;;;6.70;5.60;;;;;;;39.92;28.16;96366.38;107907;1271;22678;-80
2022/09/08 08:59:09;;;;;;;7.10;5.50;;;;;;;39.65;28.60;96362.92;107776;1270;34661;-80
2022/09/08 09:01:53;;;;;;;7.00;6.00;;;;;;;38.82;28.60;96367.28;107831;1270;22587;-80
2022/09/08 09:04:48;;;;;;;7.80;5.90;;;;;;;38.21;29.79;96376.14;107795;1270;26143;-80
2022/09/08 09:07:49;;;;;;;7.60;6.20;;;;;;;37.85;30.08;96371.60;107723;1270;22547;-80
2022/09/08 09:10:48;;;;;;;7.30;6.30;;;;;;;35.68;30.76;96369.30;107697;1271;25739;-80
2022/09/08 09:14:02;;;;;;;6.80;6.10;;;;;;;34.10;33.27;96357.98;107794;1270;22588;-80
2022/09/08 09:16:56;;;;;;;8.00;7.20;;;;;;;32.62;34.93;96356.89;107676;1270;22599;-80
2022/09/08 09:20:09;;;;;;;8.00;7.10;;;;;;;31.98;36.74;96358.50;107831;1270;25304;-80
2022/09/08 09:22:51;;;;;;;9.80;8.10;;;;;;;31.77;37.63;96353.74;107856;1270;22556;-80
2022/09/08 09:25:31;;;;;;;9.30;7.60;;;;;;;31.51;38.17;96356.13;107857;1270;24335;-76
2022/09/08 09:28:33;;;;;;;9.00;8.10;;;;;;;31.16;39.06;96351.77;107925;1270;22537;-77
2022/09/08 09:31:31;;;;;;;9.80;8.60;;;;;;;30.73;39.66;96351.58;107954;1270;22639;-76
2022/09/08 09:34:21;;;;;;;9.40;8.20;;;;;;;30.52;40.18;96347.73;107875;1270;22604;-77
2022/09/08 09:37:24;;;;;;;10.50;8.40;;;;;;;30.26;40.48;96342.98;107864;1271;23112;-77
2022/09/08 09:40:11;;;;;;;10.60;8.60;;;;;;;30.05;41.64;96341.85;107802;1270;36750;-77
2022/09/08 09:42:57;;;;;;;10.40;8.40;;;;;;;30.01;41.98;96345.73;107896;1270;22565;-78
2022/09/08 09:46:00;;;;;;;9.00;7.70;;;;;;;29.96;42.66;96341.02;107865;1270;22604;-77
2022/09/08 09:48:56;;;;;;;8.90;8.00;;;;;;;29.90;42.72;96340.26;107748;1270;27494;-76
2022/09/08 09:51:49;;;;;;;8.70;7.30;;;;;;;29.88;42.97;96337.95;107724;1271;24287;-76
2022/09/08 09:54:41;;;;;;;8.00;6.70;;;;;;;29.60;42.54;96338.99;107838;1270;22534;-76
2022/09/08 09:57:50;;;;;;;8.30;7.60;;;;;;;28.98;43.04;96335.73;107823;1270;22559;-75
2022/09/08 10:00:23;;;;;;;8.20;7.40;;;;;;;28.21;43.84;96342.48;107879;1270;22625;-75
2022/09/08 10:03:34;;;;;;;7.70;6.90;;;;;;;27.72;45.06;96346.48;107910;1270;22579;-76
2022/09/08 10:06:33;;;;;;;8.70;7.90;;;;;;;27.36;45.74;96340.36;107894;1270;22547;-80
2022/09/08 10:09:33;;;;;;;8.50;7.70;;;;;;;27.17;46.74;96332.09;107843;1270;28668;-80
2022/09/08 10:12:33;;;;;;;10.30;8.10;;;;;;;27.29;47.38;96328.95;107901;1270;22635;-79
2022/09/08 10:15:35;;;;;;;9.20;8.30;;;;;;;27.16;47.31;96329.77;107915;1270;22561;-80
2022/09/08 10:18:35;;;;;;;8.70;7.80;;;;;;;27.40;47.52;96325.42;107916;1270;22551;-80
2022/09/08 10:21:23;;;;;;;10.20;8.90;;;;;;;27.60;47.15;96324.25;107912;1270;22534;-80
2022/09/08 10:24:18;;;;;;;9.40;8.50;;;;;;;27.63;47.10;96316.24;107894;1270;26446;-80
2022/09/08 10:27:37;;;;;;;9.40;8.40;;;;;;;27.86;47.03;96316.05;107629;1270;22599;-80
2022/09/08 10:30:47;;;;;;;9.00;8.20;;;;;;;28.02;46.09;96310.67;107842;1270;34753;-80
2022/09/08 10:34:12;;;;;;;8.90;8.00;;;;;;;27.93;46.03;96310.73;107892;1270;22643;-80
2022/09/08 10:37:03;;;;;;;8.80;7.70;;;;;;;27.44;46.47;96312.34;107514;1274;22808;-80
2022/09/08 10:39:54;;;;;;;8.10;7.40;;;;;;;27.27;46.96;96305.23;107509;1276;27761;-79
2022/09/08 10:42:49;;;;;;;8.90;8.00;;;;;;;27.41;46.70;96305.27;107782;1270;22545;-80
2022/09/08 10:45:40;;;;;;;8.70;7.90;;;;;;;27.60;46.10;96303.33;107928;1270;24278;-80
2022/09/08 10:48:59;;;;;;;8.90;8.00;;;;;;;27.60;45.26;96295.54;107899;1270;25254;-80
2022/09/08 10:52:03;;;;;;;9.30;8.40;;;;;;;27.67;45.44;96299.57;107897;1270;23817;-80
2022/09/08 10:55:27;;;;;;;9.50;8.50;;;;;;;27.77;45.78;96294.16;107876;1270;22601;-79
2022/09/08 10:58:30;;;;;;;9.40;8.50;;;;;;;27.75;46.17;96291.61;107560;1275;22591;-80
2022/09/08 11:01:16;;;;;;;9.30;8.30;;;;;;;27.83;46.66;96287.96;107536;1274;22533;-79
2022/09/08 11:04:09;;;;;;;9.10;8.20;;;;;;;27.88;45.87;96292.85;107838;1270;22570;-79
2022/09/08 11:06:57;;;;;;;9.70;8.80;;;;;;;27.52;45.21;96292.46;107916;1270;22630;-79
2022/09/08 11:09:43;;;;;;;9.00;8.20;;;;;;;27.36;45.91;96286.16;107855;1270;35595;-79
2022/09/08 11:12:36;;;;;;;8.30;7.60;;;;;;;27.54;46.15;96281.41;107930;1270;22543;-80
2022/09/08 11:15:44;;;;;;;10.50;9.40;;;;;;;27.73;44.98;96286.33;107871;1270;22807;-79
2022/09/08 11:18:36;;;;;;;9.50;8.60;;;;;;;27.72;46.04;96283.44;107847;1270;22524;-79
2022/09/08 11:21:14;;;;;;;9.50;8.60;;;;;;;28.01;45.66;96287.02;107917;1269;23268;-79
2022/09/08 11:24:04;;;;;;;9.90;9.00;;;;;;;27.74;44.41;96280.62;107895;1270;25243;-79
2022/09/08 11:26:58;;;;;;;9.40;8.60;;;;;;;27.57;45.99;96276.95;107898;1270;22539;-79
2022/09/08 11:29:35;;;;;;;11.80;10.00;;;;;;;27.46;45.73;96271.41;107877;1270;24534;-80
2022/09/08 11:32:16;;;;;;;11.30;10.00;;;;;;;27.54;46.40;96271.14;107918;1270;24451;-79
2022/09/08 11:35:06;;;;;;;12.50;9.70;;;;;;;27.63;46.16;96269.23;107905;1270;25358;-79
2022/09/08 11:38:00;;;;;;;11.50;10.00;;;;;;;27.54;46.25;96266.92;107870;1270;24512;-80
2022/09/08 11:41:02;;;;;;;10.30;8.90;;;;;;;27.41;46.16;96263.65;107887;1271;25099;-79
2022/09/08 11:43:38;;;;;;;9.90;8.90;;;;;;;27.11;46.26;96260.20;107911;1270;24165;-79
2022/09/08 11:46:23;;;;;;;9.60;8.70;;;;;;;27.11;46.57;96259.73;107931;1270;22546;-79
2022/09/08 11:49:22;;;;;;;10.20;9.30;;;;;;;27.04;46.33;96256.10;107857;1270;42313;-79
2022/09/08 11:52:14;;;;;;;11.40;9.20;;;;;;;26.91;46.71;96256.66;107931;1270;26301;-79
2022/09/08 11:55:04;;;;;;;10.60;9.60;;;;;;;27.00;47.67;96254.79;107947;1270;22605;-79
2022/09/08 11:57:44;;;;;;;10.80;9.80;;;;;;;27.05;47.25;96250.05;107954;1270;22589;-79
2022/09/08 12:00:26;;;;;;;11.50;10.20;;;;;;;27.04;47.46;96245.98;107867;1270;27306;-79
2022/09/08 12:03:40;;;;;;;13.00;9.90;;;;;;;26.93;47.50;96250.13;107937;1270;25248;-79
2022/09/08 12:06:31;;;;;;;10.70;9.80;;;;;;;26.88;48.04;96249.52;107795;1270;25304;-79
2022/09/08 12:09:16;;;;;;;;;;;;;;;26.85;48.26;96248.73;107907;1270;22992;-79
2022/09/08 12:12:29;;;;;;;10.10;9.10;;;;;;;26.92;48.41;96244.46;107958;1270;22540;-79
2022/09/08 12:15:21;;;;;;;9.70;8.90;;;;;;;26.91;47.87;96242.44;107942;1270;22551;-79
2022/09/08 12:18:05;;;;;;;9.80;8.90;;;;;;;26.73;48.01;96248.70;107962;1270;22792;-79
2022/09/08 12:20:53;;;;;;;12.70;11.30;;;;;;;26.55;48.19;96247.17;107902;1270;28742;-79
2022/09/08 12:23:36;;;;;;;13.70;11.20;;;;;;;26.39;48.31;96244.48;107923;1270;24378;-79
2022/09/08 12:26:34;;;;;;;12.40;10.30;;;;;;;26.30;48.32;96243.29;107952;1270;22534;-79
2022/09/08 12:29:18;;;;;;;12.00;10.80;;;;;;;26.23;48.65;96236.92;107859;1270;35167;-79